Flight Track Log - Related Links

Times and Time Zones

All times are in EDT time to prevent confusion due to time zone crossing. See the EJM303 flight status page for this flight to view local times or setup timezone preferences in your user account.

Time Position Orientation Groundspeed Altitude Reporting Facility
EDT Latitude Longitude Course Direction KTS MPH feet Rate Location/Type
Mon 08:44:42 AM 42.4667 -71.3167 246° West 175 201 1,200  Level KA90
Mon 08:45:24 AM 42.4500 -71.3667 246° West 205 236 2,100 1,589 Climbing KA90
Mon 08:47:13 AM 42.3794 -71.4647 226° Southwest 214 246 5,200 2,343 Climbing Boston Center
Mon 08:48:13 AM 42.3678 -71.5661 261° West 226 260 8,700 3,400 Climbing Boston Center
Mon 08:49:13 AM 42.3644 -71.6703 268° West 269 310 12,000 2,900 Climbing Boston Center
Mon 08:50:13 AM 42.3589 -71.7825 266° West 283 326 14,500 2,500 Climbing Boston Center
Mon 08:51:13 AM 42.3511 -71.9064 265° West 310 357 17,000 2,450 Climbing Boston Center
Mon 08:52:13 AM 42.3456 -72.0244 266° West 323 372 19,400 2,200 Climbing Boston Center
Mon 08:53:13 AM 42.3375 -72.1508 265° West 333 383 21,400 2,100 Climbing Boston Center
Mon 08:54:13 AM 42.3294 -72.2800 265° West 338 389 23,600 2,100 Climbing Boston Center
Mon 08:55:13 AM 42.3233 -72.4147 267° West 351 404 25,600 2,050 Climbing Boston Center
Mon 08:56:13 AM 42.3150 -72.5494 265° West 357 411 27,700 2,300 Climbing Boston Center
Mon 08:57:13 AM 42.3064 -72.6814 265° West 357 411 30,200 2,200 Climbing Boston Center
Mon 08:58:13 AM 42.2978 -72.8078 265° West 352 405 32,100 2,050 Climbing Boston Center
Mon 08:59:13 AM 42.2889 -72.9283 264° West 340 391 34,300 1,850 Climbing Boston Center
Mon 09:00:13 AM 42.2800 -73.0406 264° West 327 376 35,800 1,100 Climbing Boston Center
Mon 09:01:13 AM 42.2711 -73.1528 264° West 313 360 36,500 600 Climbing Boston Center
Mon 09:02:13 AM 42.2597 -73.2817 263° West 308 354 37,000 250 Climbing Boston Center
Mon 09:03:13 AM 42.2547 -73.3797 266° West 305 351 37,000  Level Boston Center
Mon 09:04:13 AM 42.2433 -73.5114 263° West 325 374 37,000  Level Boston Center
Mon 09:05:13 AM 42.2314 -73.6486 263° West 355 409 37,000  Level Boston Center
Mon 09:06:13 AM 42.2128 -73.8081 261° West 390 449 37,000  Level Boston Center
Mon 09:07:13 AM 42.2008 -73.9478 263° West 390 449 37,000 150 Level Boston Center
Mon 09:08:13 AM 42.1883 -74.0878 263° West 390 449 37,300 400 Climbing Boston Center
Mon 09:09:13 AM 42.1736 -74.2275 262° West 385 443 37,800 350 Climbing Boston Center
Mon 09:10:13 AM 42.1611 -74.3669 263° West 385 443 38,000 70 Climbing Boston Center
Mon 09:12:05 AM 42.1361 -74.6078 262° West 386 444 38,000  Level New York Center
Mon 09:13:03 AM 42.1211 -74.7525 262° West 391 450 38,000  Level New York Center
Mon 09:14:04 AM 42.1056 -74.8967 262° West 391 450 38,000  Level New York Center
Mon 09:15:04 AM 42.0922 -75.0411 263° West 391 450 38,000  Level New York Center
Mon 09:16:05 AM 42.0761 -75.1967 262° West 391 450 38,000  Level New York Center
Mon 09:17:06 AM 42.0542 -75.3375 258° West 391 450 38,000  Level New York Center
Mon 09:18:04 AM 42.0011 -75.4678 241° Southwest 391 450 38,000  Level New York Center
Mon 09:19:05 AM 41.9483 -75.5922 240° Southwest 391 450 38,000  Level New York Center
Mon 09:20:04 AM 41.8972 -75.7197 242° Southwest 391 450 38,000  Level New York Center
Mon 09:21:04 AM 41.8419 -75.8492 240° Southwest 397 457 38,000  Level New York Center
Mon 09:22:05 AM 41.7883 -75.9758 240° Southwest 402 463 38,000  Level New York Center
Mon 09:23:06 AM 41.7369 -76.1025 242° Southwest 402 463 38,000  Level New York Center
Mon 09:24:03 AM 41.6833 -76.2314 241° Southwest 402 463 38,000  Level New York Center
Mon 09:25:04 AM 41.6411 -76.3333 241° Southwest 402 463 38,000  Level New York Center
Mon 09:26:06 AM 41.5753 -76.4889 241° Southwest 402 463 38,000  Level New York Center
Mon 09:27:04 AM 41.5192 -76.6169 240° Southwest 402 463 38,000  Level New York Center
Mon 09:28:06 AM 41.4650 -76.7425 240° Southwest 407 468 38,000  Level New York Center
Mon 09:29:04 AM 41.4153 -76.8569 240° Southwest 402 463 38,000  Level New York Center
Mon 09:30:05 AM 41.3611 -76.9819 240° Southwest 402 463 38,000  Level New York Center
Mon 09:31:05 AM 41.3064 -77.1097 240° Southwest 402 463 38,000  Level New York Center
Mon 09:32:06 AM 41.2517 -77.2342 240° Southwest 402 463 38,000  Level New York Center
Mon 09:33:06 AM 41.1947 -77.3583 239° Southwest 402 463 38,000  Level New York Center
Mon 09:34:06 AM 41.1350 -77.4958 240° Southwest 402 463 38,000  Level New York Center
Mon 09:36:33 AM 41.0025 -77.7958 240° Southwest 394 453 38,000  Level Cleveland Center
Mon 09:37:33 AM 40.9450 -77.9219 239° Southwest 394 453 38,000  Level Cleveland Center
Mon 09:38:33 AM 40.8958 -78.0506 243° Southwest 394 453 38,000  Level Cleveland Center
Mon 09:39:33 AM 40.8531 -78.1867 247° West 399 459 38,000  Level Cleveland Center
Mon 09:40:33 AM 40.8142 -78.3253 250° West 404 465 38,000  Level Cleveland Center
Mon 09:41:33 AM 40.7686 -78.4611 246° West 404 465 38,000 -400 Level Cleveland Center
Mon 09:42:33 AM 40.7294 -78.5967 249° West 399 459 37,200 -1,350 Descending Cleveland Center
Mon 09:43:33 AM 40.6861 -78.7375 248° West 399 459 35,300 -1,600 Descending Cleveland Center
Mon 09:44:33 AM 40.6444 -78.8756 248° West 404 465 34,000 -650 Descending Cleveland Center
Mon 09:45:33 AM 40.6025 -79.0161 249° West 404 465 34,000  Level Cleveland Center
Mon 09:46:33 AM 40.5544 -79.1567 246° West 414 476 34,000 -150 Level Cleveland Center
Mon 09:47:33 AM 40.5103 -79.2969 248° West 419 482 33,700 -500 Descending Cleveland Center
Mon 09:48:33 AM 40.4681 -79.4369 248° West 419 482 33,000 -800 Descending Cleveland Center
Mon 09:49:33 AM 40.4233 -79.5794 248° West 419 482 32,100 -750 Descending Cleveland Center
Mon 09:50:33 AM 40.3808 -79.7136 247° West 414 476 31,500 -1,300 Descending Cleveland Center
Mon 09:51:33 AM 40.3317 -79.8669 247° West 414 476 29,500 -1,750 Descending Cleveland Center
Mon 09:52:33 AM 40.2847 -80.0117 247° West 419 482 28,000 -750 Descending Cleveland Center
Mon 09:53:33 AM 40.2394 -80.1506 247° West 431 496 28,000  Level Cleveland Center
Mon 09:54:33 AM 40.1939 -80.2922 247° West 431 496 28,000  Level Cleveland Center
Mon 09:55:33 AM 40.1442 -80.4364 246° West 431 496 28,000 -750 Level Cleveland Center
Mon 09:56:33 AM 40.0983 -80.5778 247° West 431 496 26,500 -1,750 Descending Cleveland Center
Mon 09:57:33 AM 40.0525 -80.7158 247° West 431 496 24,500 -2,000 Descending Cleveland Center
Mon 09:58:33 AM 40.0106 -80.8542 248° West 420 483 22,500 -1,250 Descending Cleveland Center
Mon 09:59:33 AM 39.9831 -80.9922 255° West 408 470 22,000 -650 Descending Cleveland Center
Mon 10:00:33 AM 39.9594 -81.1247 257° West 398 458 21,200 -805 Descending Cleveland Center
Mon 10:00:55 AM 39.9497 -81.1550 247° West 375 432 20,900 -1,286 Descending Indianapolis Center
Mon 10:01:57 AM 39.9244 -81.2889 256° West 380 437 19,400 -1,548 Descending Indianapolis Center
Mon 10:02:59 AM 39.8956 -81.4339 255° West 388 447 17,700 -1,694 Descending Indianapolis Center
Mon 10:04:01 AM 39.8633 -81.5931 255° West 388 447 15,900 -1,632 Descending Indianapolis Center
Mon 10:05:04 AM 39.8367 -81.7286 256° West 383 441 14,300 -1,532 Descending Indianapolis Center
Mon 10:05:35 AM 39.8233 -81.7992 256° West 384 442 13,500 -1,548 Descending Indianapolis Center
Mon 10:06:06 AM 39.8094 -81.8636 254° West 382 440 12,700 -1,625 Descending Indianapolis Center
Mon 10:06:23 AM 39.8000 -81.9108 255° West 380 437 12,200 -1,452 Descending Indianapolis Center
Mon 10:07:08 AM 39.7883 -81.9950 260° West 370 426 11,200 -1,475 Descending Indianapolis Center
Mon 10:07:24 AM 39.7861 -82.0369 266° West 354 407 10,700 -1,258 Descending Indianapolis Center
Mon 10:08:10 AM 39.7772 -82.1203 262° West 350 403 9,900 -444 Descending Indianapolis Center
Mon 10:09:12 AM 39.8231 -82.2169 302° West 312 359 9,900 -339 Level Indianapolis Center
Mon 10:10:14 AM 39.8711 -82.3028 306° West 294 338 9,200 -1,210 Descending Indianapolis Center
Mon 10:11:16 AM 39.9242 -82.4019 305° West 286 329 7,400 -1,645 Descending Indianapolis Center
Mon 10:12:18 AM 39.9683 -82.4850 305° West 278 320 5,800 -1,500 Descending Indianapolis Center
Mon 10:13:20 AM 39.9769 -82.5811 277° West 266 306 4,300 -1,403 Descending Indianapolis Center
Mon 10:14:22 AM 39.9822 -82.6794 274° West 240 276 2,900 -780 Descending Indianapolis Center
Mon 10:15:23 AM 39.9861 -82.7478 274° West 183 211 2,700 -435 Descending Indianapolis Center
Mon 10:16:26 AM 39.9889 -82.7958 274° West 174 200 2,000 -730 Descending Indianapolis Center
Mon 10:17:18 AM 39.9903 -82.8436 272° West 134 154 1,300 -484 Descending Indianapolis Center
Mon 10:18:30 AM 39.9950 -82.8950 277° West 141 162 1,000 -250 Descending Indianapolis Center
Mon 10:20:00 AM 39.9980 -82.8920 294° West  Level Estimated

Login

Don't have an account? Register now (free) for customized features, flight alerts, and more!